createdAt,value
2018-06-02T00:02:03.355Z,85.29
2018-06-02T00:04:32.425Z,85.00
2018-06-02T00:07:01.482Z,85.86
2018-06-02T00:09:30.527Z,85.05
2018-06-02T00:11:59.569Z,84.82
2018-06-02T00:14:28.623Z,84.39
2018-06-02T00:16:57.657Z,83.79
2018-06-02T00:19:26.705Z,84.29
2018-06-02T00:24:31.963Z,84.61
2018-06-02T00:29:36.835Z,84.68
2018-06-02T00:32:05.877Z,84.80
2018-06-02T00:34:34.966Z,85.70
2018-06-02T00:37:04.018Z,86.13
2018-06-02T00:39:33.076Z,85.68
2018-06-02T00:42:02.131Z,86.48
2018-06-02T00:44:31.182Z,87.39
2018-06-02T00:47:00.222Z,88.27
2018-06-02T00:49:38.825Z,87.98
2018-06-02T00:52:20.625Z,86.96
2018-06-02T00:57:30.053Z,85.88
2018-06-02T01:00:13.274Z,85.44
2018-06-02T01:02:55.364Z,87.62
2018-06-02T01:08:17.151Z,87.54
2018-06-02T01:11:02.657Z,86.40
2018-06-02T01:13:46.593Z,87.88
2018-06-02T01:16:30.072Z,88.69
2018-06-02T01:19:13.965Z,88.96
2018-06-02T01:21:56.232Z,88.47
2018-06-02T01:24:39.858Z,88.93
2018-06-02T01:30:03.154Z,87.79
2018-06-02T01:32:45.189Z,88.19
2018-06-02T01:35:27.243Z,87.04
2018-06-02T01:37:56.901Z,87.55
2018-06-02T01:43:01.674Z,87.36
2018-06-02T01:45:30.714Z,88.02
2018-06-02T01:47:59.758Z,87.90
2018-06-02T01:50:28.795Z,86.92
2018-06-02T01:52:57.844Z,88.29
2018-06-02T01:58:02.609Z,88.81
2018-06-02T02:00:31.685Z,89.02
2018-06-02T02:03:00.736Z,89.47
2018-06-02T02:08:05.607Z,88.26
2018-06-02T02:16:45.111Z,88.59
2018-06-02T02:19:14.162Z,89.90
2018-06-02T02:21:43.216Z,91.15
2018-06-02T02:24:12.278Z,89.98
2018-06-02T02:26:41.343Z,90.21
2018-06-02T02:29:10.394Z,91.81
2018-06-02T02:31:39.443Z,91.91
2018-06-02T02:34:08.485Z,91.10
2018-06-02T02:36:37.577Z,91.98
2018-06-02T02:39:06.619Z,89.99
2018-06-02T02:41:35.691Z,91.70
2018-06-02T02:44:04.752Z,91.52
2018-06-02T02:46:33.812Z,92.59
2018-06-02T02:49:02.874Z,92.87
2018-06-02T02:51:31.947Z,92.86
2018-06-02T02:54:01.002Z,93.01
2018-06-02T02:56:30.037Z,93.33
2018-06-02T02:58:59.089Z,93.14
2018-06-02T03:01:28.136Z,92.25
2018-06-02T03:03:57.233Z,91.94
2018-06-02T03:06:26.285Z,92.13
2018-06-02T03:08:55.334Z,91.70
2018-06-02T03:11:24.382Z,92.97
2018-06-02T03:13:53.534Z,93.20
2018-06-02T03:16:22.593Z,93.78
2018-06-02T03:18:51.657Z,93.45
2018-06-02T03:21:20.726Z,93.55
2018-06-02T03:23:49.787Z,94.43
2018-06-02T03:26:18.813Z,95.09
2018-06-02T03:28:47.872Z,95.08
2018-06-02T03:31:16.929Z,94.85
2018-06-02T03:33:45.984Z,94.78
2018-06-02T03:36:15.045Z,94.46
2018-06-02T03:38:44.090Z,95.26
2018-06-02T03:43:48.868Z,92.47
2018-06-02T03:46:17.918Z,93.70
2018-06-02T03:48:47.383Z,93.34
2018-06-02T03:51:16.505Z,93.99
2018-06-02T03:53:45.801Z,93.36
2018-06-02T03:56:14.857Z,93.55
2018-06-02T03:58:43.915Z,94.01
2018-06-02T04:03:48.696Z,93.58
2018-06-02T04:06:19.342Z,92.39
2018-06-02T04:08:48.404Z,92.44
2018-06-02T04:11:17.686Z,93.66
2018-06-02T04:13:46.970Z,93.52
2018-06-02T04:16:16.058Z,92.41
2018-06-02T04:18:46.851Z,91.85
2018-06-02T04:21:15.881Z,91.86
2018-06-02T04:23:46.165Z,92.05
2018-06-02T04:28:51.974Z,88.91
2018-06-02T04:31:21.043Z,88.71
2018-06-02T04:36:25.843Z,87.46
2018-06-02T04:38:55.025Z,88.18
2018-06-02T04:41:24.074Z,87.91
2018-06-02T04:43:53.123Z,87.28
2018-06-02T04:46:23.108Z,87.68
2018-06-02T04:48:52.128Z,87.06
2018-06-02T04:51:21.179Z,86.68
2018-06-02T04:53:50.221Z,86.50
2018-06-02T04:56:19.273Z,87.06
2018-06-02T04:58:49.102Z,86.91
2018-06-02T05:01:18.125Z,86.27
2018-06-02T05:03:48.950Z,86.53
2018-06-02T05:06:18.044Z,86.44
2018-06-02T05:08:47.549Z,86.47
2018-06-02T05:11:16.582Z,86.66
2018-06-02T05:13:46.524Z,88.87
2018-06-02T05:16:15.963Z,89.13
2018-06-02T05:18:45.898Z,88.33
2018-06-02T05:21:16.181Z,88.21
2018-06-02T05:23:46.433Z,87.57
2018-06-02T05:26:15.449Z,86.56
2018-06-02T05:28:46.061Z,86.25
2018-06-02T05:31:15.125Z,84.93
2018-06-02T05:33:46.426Z,84.30
2018-06-02T05:36:15.487Z,84.18
2018-06-02T05:38:47.308Z,83.51
2018-06-02T05:43:52.177Z,82.64
2018-06-02T05:46:21.271Z,82.56
2018-06-02T05:48:50.327Z,84.14
2018-06-02T05:51:19.623Z,82.77
2018-06-02T05:53:48.666Z,83.08
2018-06-02T05:56:17.739Z,83.46
2018-06-02T05:58:46.831Z,84.29
2018-06-02T06:01:15.877Z,82.66
2018-06-02T06:03:46.106Z,82.39
2018-06-02T06:06:15.197Z,82.17
2018-06-02T06:08:46.000Z,82.50
2018-06-02T06:11:16.132Z,81.86
2018-06-02T06:13:47.258Z,80.40
2018-06-02T06:16:16.401Z,80.48
2018-06-02T06:18:46.729Z,79.83
2018-06-02T06:21:15.801Z,78.98
2018-06-02T06:26:20.617Z,78.21
2018-06-02T06:28:50.464Z,78.00
2018-06-02T06:31:19.486Z,78.31
2018-06-02T06:33:48.808Z,78.12
2018-06-02T06:41:29.510Z,69.85
2018-06-02T06:46:34.610Z,69.07
2018-06-02T06:49:03.637Z,67.85
2018-06-02T06:51:32.778Z,68.19
2018-06-02T06:54:01.854Z,67.19
2018-06-02T06:56:31.074Z,68.56
2018-06-02T06:59:00.136Z,64.82
2018-06-02T07:01:29.900Z,69.17
2018-06-02T07:04:03.249Z,66.72
2018-06-02T07:06:33.163Z,67.07
2018-06-02T07:09:02.236Z,61.68
2018-06-02T07:11:33.412Z,62.08
2018-06-02T07:14:02.718Z,63.33
2018-06-02T07:16:32.585Z,61.70
2018-06-02T07:19:01.636Z,63.28
2018-06-02T07:21:31.188Z,63.72
2018-06-02T07:26:36.035Z,62.68
2018-06-02T07:29:07.538Z,61.85
2018-06-02T07:31:36.573Z,61.25
2018-06-02T07:34:05.902Z,60.54
2018-06-02T07:36:34.974Z,64.36
2018-06-02T07:39:05.158Z,65.83
2018-06-02T07:41:34.201Z,62.23
2018-06-02T07:44:03.258Z,63.32
2018-06-02T07:46:32.801Z,63.90
2018-06-02T07:49:01.834Z,62.61
2018-06-02T07:51:31.522Z,63.58
2018-06-02T07:54:00.561Z,60.06
2018-06-02T07:56:29.682Z,63.65
2018-06-02T07:58:58.727Z,63.41
2018-06-02T08:01:27.771Z,63.08
2018-06-02T08:06:32.702Z,61.76
2018-06-02T08:09:02.402Z,59.48
2018-06-02T08:11:31.426Z,60.88
2018-06-02T08:14:01.493Z,61.15
2018-06-02T08:16:30.534Z,61.85
2018-06-02T08:19:00.090Z,61.91
2018-06-02T08:21:29.125Z,60.10
2018-06-02T08:23:58.829Z,59.69
2018-06-02T08:26:27.878Z,58.76
2018-06-02T08:31:32.893Z,56.21
2018-06-02T08:34:01.942Z,57.33
2018-06-02T08:36:31.376Z,56.38
2018-06-02T08:41:36.681Z,52.88
2018-06-02T08:44:05.745Z,49.84
2018-06-02T08:46:35.018Z,48.93
2018-06-02T08:49:04.094Z,52.37
2018-06-02T08:51:33.133Z,53.02
2018-06-02T08:54:02.174Z,52.02
2018-06-02T08:56:32.743Z,51.49
2018-06-02T08:59:01.786Z,52.25
2018-06-02T09:01:31.614Z,52.36
2018-06-02T09:04:00.662Z,50.79
2018-06-02T09:06:29.739Z,47.75
2018-06-02T09:08:59.558Z,52.00
2018-06-02T09:11:28.616Z,52.17
2018-06-02T09:13:57.683Z,54.65
2018-06-02T09:16:26.732Z,53.69
2018-06-02T09:18:55.838Z,55.97
2018-06-02T09:21:25.120Z,54.87
2018-06-02T09:23:54.598Z,54.80
2018-06-02T09:26:23.645Z,52.73
2018-06-02T09:28:53.435Z,44.68
2018-06-02T09:31:22.466Z,44.73
2018-06-02T09:36:27.974Z,41.27
2018-06-02T09:38:57.022Z,38.36
2018-06-02T09:41:26.809Z,40.94
2018-06-02T09:46:31.568Z,36.80
2018-06-02T09:49:00.607Z,37.53
2018-06-02T09:51:29.650Z,43.86
2018-06-02T09:53:58.905Z,42.18
2018-06-02T09:56:27.976Z,40.71
2018-06-02T10:01:33.222Z,41.33
2018-06-02T10:04:02.270Z,41.22
2018-06-02T10:06:31.341Z,42.76
2018-06-02T10:09:00.482Z,43.03
2018-06-02T10:11:29.956Z,45.14
2018-06-02T10:13:58.997Z,43.95
2018-06-02T10:16:28.743Z,44.66
2018-06-02T10:21:33.498Z,45.29
2018-06-02T10:24:02.729Z,46.47
2018-06-02T10:26:31.786Z,45.08
2018-06-02T10:29:01.049Z,45.53
2018-06-02T10:31:30.081Z,45.85
2018-06-02T10:34:00.074Z,41.00
2018-06-02T10:36:29.134Z,40.45
2018-06-02T10:38:58.595Z,40.65
2018-06-02T10:41:27.663Z,41.88
2018-06-02T10:46:32.489Z,46.31
2018-06-02T10:51:38.202Z,47.53
2018-06-02T10:54:07.247Z,47.85
2018-06-02T10:56:37.135Z,45.20
2018-06-02T10:59:06.323Z,42.88
2018-06-02T11:01:35.751Z,41.90
2018-06-02T11:04:04.761Z,39.59
2018-06-02T11:06:34.122Z,39.72
2018-06-02T11:09:06.292Z,40.40
2018-06-02T11:11:35.493Z,41.42
2018-06-02T11:14:04.543Z,43.51
2018-06-02T11:16:33.590Z,45.67
2018-06-02T11:19:02.644Z,43.36
2018-06-02T11:21:31.682Z,42.79
2018-06-02T11:24:00.732Z,38.04
2018-06-02T11:26:29.788Z,39.09
2018-06-02T11:28:59.509Z,38.39
2018-06-02T11:31:28.537Z,38.90
2018-06-02T11:33:58.629Z,37.75
2018-06-02T11:36:27.665Z,37.53
2018-06-02T11:38:56.999Z,38.72
2018-06-02T11:41:26.522Z,38.56
2018-06-02T11:43:55.563Z,40.62
2018-06-02T11:46:24.612Z,40.98
2018-06-02T11:48:53.674Z,43.58
2018-06-02T11:51:22.714Z,44.24
2018-06-02T11:53:51.796Z,41.84
2018-06-02T11:56:20.845Z,37.57
2018-06-02T11:58:56.762Z,33.04
2018-06-02T12:01:34.637Z,31.49
2018-06-02T12:06:52.184Z,29.29
2018-06-02T12:09:29.784Z,29.34
2018-06-02T12:12:08.620Z,35.97
2018-06-02T12:17:24.341Z,34.79
2018-06-02T12:19:53.884Z,37.44
2018-06-02T12:22:24.128Z,37.55
2018-06-02T12:24:53.154Z,38.63
2018-06-02T12:27:22.757Z,33.64
2018-06-02T12:29:51.848Z,29.35
2018-06-02T12:32:21.415Z,28.59
2018-06-02T12:34:50.498Z,27.54
2018-06-02T12:37:20.212Z,31.05
2018-06-02T12:39:49.271Z,31.52
2018-06-02T12:42:18.861Z,30.28
2018-06-02T12:44:47.884Z,27.46
2018-06-02T12:47:17.233Z,27.20
2018-06-02T12:49:46.311Z,26.55
2018-06-02T12:52:15.494Z,26.52
2018-06-02T12:54:44.572Z,23.47
2018-06-02T12:57:13.640Z,24.60
2018-06-02T12:59:42.672Z,26.14
2018-06-02T13:02:11.734Z,24.86
2018-06-02T13:04:40.785Z,23.39
2018-06-02T13:07:09.833Z,25.46
2018-06-02T13:09:39.241Z,24.22
2018-06-02T13:14:44.214Z,22.49
2018-06-02T13:17:14.101Z,24.12
2018-06-02T13:19:43.156Z,23.66
2018-06-02T13:22:12.769Z,23.51
2018-06-02T13:24:41.816Z,23.22
2018-06-02T13:27:11.462Z,23.83
2018-06-02T13:29:40.537Z,22.89
2018-06-02T13:32:09.569Z,22.55
2018-06-02T13:34:38.629Z,22.50
2018-06-02T13:37:07.689Z,23.24
2018-06-02T13:39:36.737Z,20.25
2018-06-02T13:42:05.779Z,22.36
2018-06-02T13:44:35.097Z,24.38
2018-06-02T13:47:04.217Z,23.27
2018-06-02T13:49:33.731Z,23.04
2018-06-02T13:52:02.802Z,20.34
2018-06-02T13:54:35.730Z,20.54
2018-06-02T13:57:08.600Z,22.01
2018-06-02T13:59:41.722Z,23.89
2018-06-02T14:02:14.566Z,24.15
2018-06-02T14:04:47.342Z,23.24
2018-06-02T14:07:20.336Z,21.66
2018-06-02T14:09:53.612Z,21.49
2018-06-02T14:12:25.907Z,21.55
2018-06-02T14:17:34.246Z,21.84
2018-06-02T14:20:07.529Z,21.16
2018-06-02T14:22:40.624Z,21.38
2018-06-02T14:27:53.063Z,19.52
2018-06-02T14:30:26.343Z,19.37
2018-06-02T14:32:59.546Z,20.39
2018-06-02T14:35:32.054Z,24.13
2018-06-02T14:38:05.391Z,24.32
2018-06-02T14:40:38.450Z,22.56
2018-06-02T14:43:10.643Z,21.24
2018-06-02T14:45:43.616Z,23.22
2018-06-02T14:53:30.524Z,21.27
2018-06-02T14:56:02.923Z,21.21
2018-06-02T14:58:35.947Z,21.46
2018-06-02T15:01:09.100Z,19.84
2018-06-02T15:03:41.602Z,22.20
2018-06-02T15:06:14.599Z,22.39
2018-06-02T15:08:47.860Z,22.74
2018-06-02T15:11:20.767Z,21.74
2018-06-02T15:13:56.173Z,20.33
2018-06-02T15:16:27.976Z,21.43
2018-06-02T15:19:00.860Z,21.30
2018-06-02T15:21:36.150Z,21.48
2018-06-02T15:24:09.528Z,21.83
2018-06-02T15:29:18.199Z,21.15
2018-06-02T15:31:50.088Z,22.87
2018-06-02T15:34:22.244Z,23.87
2018-06-02T15:39:31.058Z,25.89
2018-06-02T15:42:03.963Z,25.31
2018-06-02T15:44:36.073Z,24.42
2018-06-02T15:47:08.307Z,23.20
2018-06-02T15:49:41.913Z,22.41
2018-06-02T15:52:14.442Z,22.01
2018-06-02T15:54:47.543Z,23.21
2018-06-02T15:57:19.795Z,23.41
2018-06-02T15:59:53.683Z,23.30
2018-06-02T16:02:27.693Z,23.35
2018-06-02T16:04:59.893Z,23.85
2018-06-02T16:07:31.845Z,23.44
2018-06-02T16:10:04.406Z,23.19
2018-06-02T16:12:35.857Z,22.81
2018-06-02T16:15:08.818Z,22.52
2018-06-02T16:17:41.241Z,22.74
2018-06-02T16:20:13.223Z,22.89
2018-06-02T16:22:45.599Z,22.49
2018-06-02T16:25:18.572Z,23.67
2018-06-02T16:27:50.668Z,29.15
2018-06-02T16:30:22.657Z,31.35
2018-06-02T16:32:54.773Z,33.13
2018-06-02T16:35:27.115Z,32.20
2018-06-02T16:38:00.013Z,32.73
2018-06-02T16:40:31.746Z,37.27
2018-06-02T16:43:03.890Z,36.17
2018-06-02T16:45:37.573Z,36.76
2018-06-02T16:53:25.576Z,40.36
2018-06-02T16:55:58.645Z,38.79
2018-06-02T16:58:31.314Z,40.40
2018-06-02T17:01:05.042Z,39.32
2018-06-02T17:03:37.736Z,40.40
2018-06-02T17:06:10.809Z,39.85
2018-06-02T17:08:43.083Z,39.22
2018-06-02T17:11:15.587Z,39.76
2018-06-02T17:13:47.681Z,41.21
2018-06-02T17:16:20.443Z,41.74
2018-06-02T17:21:29.825Z,43.65
2018-06-02T17:24:03.204Z,42.63
2018-06-02T17:26:35.536Z,43.72
2018-06-02T17:29:08.264Z,42.99
2018-06-02T17:31:40.912Z,43.21
2018-06-02T17:34:14.283Z,42.26
2018-06-02T17:36:47.514Z,43.01
2018-06-02T17:39:20.329Z,44.87
2018-06-02T17:44:29.682Z,45.76
2018-06-02T17:47:02.034Z,44.62
2018-06-02T17:49:34.343Z,47.03
2018-06-02T17:52:06.899Z,44.62
2018-06-02T17:54:39.726Z,45.88
2018-06-02T17:57:13.124Z,45.09
2018-06-02T17:59:46.934Z,48.79
2018-06-02T18:02:21.506Z,45.78
2018-06-02T18:07:30.671Z,46.19
2018-06-02T18:10:03.062Z,51.04
2018-06-02T18:12:32.165Z,51.81
2018-06-02T18:15:02.136Z,49.50
2018-06-02T18:17:31.540Z,50.37
2018-06-02T18:20:00.640Z,55.87
2018-06-02T18:22:29.875Z,50.24
2018-06-02T18:24:59.251Z,54.19
2018-06-02T18:27:28.329Z,52.68
2018-06-02T18:29:57.409Z,53.19
2018-06-02T18:32:26.644Z,53.40
2018-06-02T18:34:55.690Z,56.31
2018-06-02T18:37:24.798Z,58.06
2018-06-02T18:39:54.007Z,56.80
2018-06-02T18:42:23.071Z,57.18
2018-06-02T18:47:27.950Z,60.22
2018-06-02T18:49:57.015Z,60.46
2018-06-02T18:52:26.217Z,60.73
2018-06-02T18:57:31.092Z,63.07
2018-06-02T19:00:00.355Z,62.17
2018-06-02T19:02:29.463Z,71.33
2018-06-02T19:04:59.431Z,63.11
2018-06-02T19:07:28.550Z,67.32
2018-06-02T19:09:58.528Z,65.97
2018-06-02T19:12:27.598Z,71.55
2018-06-02T19:14:56.646Z,69.44
2018-06-02T19:17:25.708Z,66.91
2018-06-02T19:19:54.926Z,70.40
2018-06-02T19:22:24.029Z,68.53
2018-06-02T19:24:53.120Z,71.07
2018-06-02T19:27:22.866Z,70.38
2018-06-02T19:29:51.975Z,76.58
2018-06-02T19:34:56.789Z,75.45
2018-06-02T19:37:25.859Z,69.65
2018-06-02T19:39:54.926Z,70.87
2018-06-02T19:42:24.177Z,73.99
2018-06-02T19:44:53.234Z,71.31
2018-06-02T19:47:22.307Z,73.90
2018-06-02T19:49:51.375Z,80.88
2018-06-02T19:52:22.888Z,77.99
2018-06-02T19:54:52.173Z,80.04
2018-06-02T19:57:21.933Z,76.14
2018-06-02T19:59:51.013Z,78.94
2018-06-02T20:02:23.761Z,76.97
2018-06-02T20:04:54.616Z,77.36
2018-06-02T20:07:25.535Z,76.96
2018-06-02T20:09:56.237Z,74.78
2018-06-02T20:12:27.079Z,75.73
2018-06-02T20:17:36.708Z,73.82
2018-06-02T20:20:08.267Z,77.09
2018-06-02T20:22:41.268Z,75.68
2018-06-02T20:25:13.118Z,74.30
2018-06-02T20:27:45.714Z,76.07
2018-06-02T20:30:18.267Z,74.17
2018-06-02T20:32:52.180Z,75.37
2018-06-02T20:35:23.299Z,77.56
2018-06-02T20:37:54.757Z,80.64
2018-06-02T20:43:03.159Z,75.99
2018-06-02T20:48:13.025Z,74.98
2018-06-02T20:50:45.325Z,80.53
2018-06-02T20:55:53.888Z,77.16
2018-06-02T20:58:26.653Z,78.43
2018-06-02T21:03:34.784Z,76.48
2018-06-02T21:06:06.714Z,77.65
2018-06-02T21:08:37.383Z,82.56
2018-06-02T21:13:45.767Z,77.93
2018-06-02T21:16:17.417Z,80.89
2018-06-02T21:18:49.350Z,79.83
2018-06-02T21:21:22.336Z,79.89
2018-06-02T21:23:52.596Z,78.74
2018-06-02T21:28:58.448Z,80.07
2018-06-02T21:31:31.286Z,81.60
2018-06-02T21:34:02.362Z,81.80
2018-06-02T21:36:35.028Z,86.06
2018-06-02T21:39:07.203Z,88.46
2018-06-02T21:41:42.288Z,84.81
2018-06-02T21:44:13.527Z,85.40
2018-06-02T21:46:46.103Z,84.89
2018-06-02T21:49:18.582Z,87.59
2018-06-02T21:51:51.100Z,85.48
2018-06-02T21:54:22.353Z,84.10
2018-06-02T21:56:53.923Z,84.70
2018-06-02T21:59:26.677Z,84.07
2018-06-02T22:01:57.955Z,83.16
2018-06-02T22:04:29.641Z,84.41
2018-06-02T22:07:03.185Z,84.28
2018-06-02T22:12:12.445Z,82.19
2018-06-02T22:14:45.473Z,83.75
2018-06-02T22:17:17.506Z,83.12
2018-06-02T22:19:50.782Z,83.52
2018-06-02T22:22:22.052Z,81.97
2018-06-02T22:24:52.657Z,84.19
2018-06-02T22:27:25.096Z,87.07
2018-06-02T22:29:56.175Z,86.24
2018-06-02T22:32:27.944Z,84.70
2018-06-02T22:34:59.039Z,85.02
2018-06-02T22:40:06.102Z,86.94
2018-06-02T22:42:38.412Z,86.20
2018-06-02T22:45:11.022Z,84.59
2018-06-02T22:47:42.632Z,85.00
2018-06-02T22:50:14.847Z,85.62
2018-06-02T22:52:47.189Z,83.51
2018-06-02T22:57:55.346Z,85.15
2018-06-02T23:00:29.495Z,87.55
2018-06-02T23:05:39.002Z,85.10
2018-06-02T23:08:10.190Z,86.09
2018-06-02T23:10:41.108Z,86.45
2018-06-02T23:13:13.248Z,86.90
2018-06-02T23:15:45.661Z,86.12
2018-06-02T23:18:17.034Z,87.43
2018-06-02T23:20:48.892Z,89.14
2018-06-02T23:23:20.936Z,88.80
2018-06-02T23:25:53.622Z,86.88
2018-06-02T23:28:26.608Z,87.05
2018-06-02T23:30:56.827Z,88.47
2018-06-02T23:33:29.833Z,88.58
2018-06-02T23:36:02.286Z,88.10
2018-06-02T23:38:35.554Z,87.73
2018-06-02T23:41:07.701Z,88.78
2018-06-02T23:43:42.025Z,89.31
2018-06-02T23:46:14.510Z,89.16
2018-06-02T23:48:46.464Z,90.86
2018-06-02T23:51:19.109Z,90.56
2018-06-02T23:53:52.198Z,90.17
2018-06-02T23:56:24.852Z,91.23
2018-06-02T23:58:55.979Z,92.19
